Time;durP1;ratioP1;P1;durP2;ratioP2;P2;SDS_P1;SDS_P2;PMS_P1;PMS_P2;Temp;Humidity;BMP_temperature;BMP_pressure;BME280_temperature;BME280_humidity;BME280_pressure;Samples;Min_cycle;Max_cycle;Signal;HPM_P1;HPM_P2
2022/07/11 00:00:52;;;;;;;11.50;4.20;;;;;;;19.50;100.00;101915.16;5051926;28;20053;-76
2022/07/11 00:03:19;;;;;;;10.93;4.03;;;;;;;19.52;100.00;101920.34;5051852;28;20155;-77
2022/07/11 00:05:45;;;;;;;10.55;3.65;;;;;;;19.49;100.00;101910.75;5046520;28;20110;-76
2022/07/11 00:08:12;;;;;;;16.95;4.32;;;;;;;19.45;100.00;101914.84;5042611;28;20598;-77
2022/07/11 00:10:38;;;;;;;12.05;4.10;;;;;;;19.44;100.00;101919.66;5048341;28;20052;-77
2022/07/11 00:13:05;;;;;;;16.42;4.20;;;;;;;19.44;100.00;101925.28;5047596;28;20086;-75
2022/07/11 00:15:31;;;;;;;12.18;4.07;;;;;;;19.41;100.00;101922.56;5047720;28;20143;-77
2022/07/11 00:17:58;;;;;;;8.50;4.07;;;;;;;19.37;100.00;101917.00;5051210;28;20235;-76
2022/07/11 00:20:25;;;;;;;13.50;4.95;;;;;;;19.34;100.00;101917.84;5046874;28;20060;-76
2022/07/11 00:22:51;;;;;;;12.23;3.90;;;;;;;19.28;100.00;101908.34;5049921;28;20754;-76
2022/07/11 00:25:18;;;;;;;16.30;4.50;;;;;;;19.28;100.00;101913.97;5048739;28;20055;-76
2022/07/11 00:27:45;;;;;;;16.15;4.47;;;;;;;19.21;100.00;101916.06;5048336;28;20541;-75
2022/07/11 00:30:18;;;;;;;11.82;3.92;;;;;;;19.22;100.00;101921.25;5056073;28;20094;-77
2022/07/11 00:32:44;;;;;;;8.90;3.92;;;;;;;19.22;100.00;101918.44;5038162;28;20057;-76
2022/07/11 00:35:11;;;;;;;13.93;3.85;;;;;;;19.23;100.00;101908.81;5035564;28;20052;-77
2022/07/11 00:37:38;;;;;;;12.00;4.57;;;;;;;19.23;100.00;101910.81;5046264;28;20049;-75
2022/07/11 00:40:05;;;;;;;14.32;4.30;;;;;;;19.19;100.00;101898.84;5046334;28;20682;-77
2022/07/11 00:42:32;;;;;;;11.80;4.35;;;;;;;19.16;100.00;101905.31;5058347;28;20040;-76
2022/07/11 00:44:58;;;;;;;13.63;3.85;;;;;;;19.14;100.00;101910.59;5055624;28;20067;-77
2022/07/11 00:47:25;;;;;;;11.40;4.25;;;;;;;19.08;100.00;101901.06;5052819;28;20049;-77
2022/07/11 00:49:52;;;;;;;13.27;4.05;;;;;;;19.02;100.00;101906.38;5047355;28;20053;-76
2022/07/11 00:52:19;;;;;;;12.00;4.07;;;;;;;18.92;100.00;101901.72;5046295;28;20841;-77
2022/07/11 00:54:46;;;;;;;14.77;4.40;;;;;;;18.83;100.00;101898.66;5050316;28;20045;-77
2022/07/11 00:57:13;;;;;;;13.48;4.82;;;;;;;18.78;100.00;101901.97;5048583;28;20048;-76
2022/07/11 00:59:40;;;;;;;9.05;3.47;;;;;;;18.75;100.00;101902.00;5044961;28;20155;-77
2022/07/11 01:02:07;;;;;;;14.15;4.50;;;;;;;18.66;100.00;101902.53;5049099;28;20049;-77
2022/07/11 01:04:34;;;;;;;13.15;4.07;;;;;;;18.61;100.00;101899.44;5040007;28;20076;-76
2022/07/11 01:07:01;;;;;;;10.85;4.10;;;;;;;18.48;100.00;101893.63;5041203;28;20059;-75
2022/07/11 01:09:28;;;;;;;11.25;4.55;;;;;;;18.44;100.00;101897.69;5045696;28;20049;-75
2022/07/11 01:11:54;;;;;;;15.77;4.75;;;;;;;18.36;100.00;101899.78;5046741;28;20053;-73
2022/07/11 01:14:21;;;;;;;14.25;4.88;;;;;;;18.29;100.00;101904.69;5045465;28;20574;-76
2022/07/11 01:16:47;;;;;;;11.85;4.25;;;;;;;18.19;100.00;101906.41;5046453;28;20058;-76
2022/07/11 01:19:14;;;;;;;10.88;4.50;;;;;;;18.11;100.00;101902.13;5051141;28;20127;-76
2022/07/11 01:21:45;;;;;;;10.77;4.25;;;;;;;18.07;100.00;101894.97;5048742;28;20153;-77
2022/07/11 01:24:12;;;;;;;10.38;5.18;;;;;;;18.06;100.00;101894.22;5048134;28;20137;-75
2022/07/11 01:26:38;;;;;;;18.58;5.30;;;;;;;18.06;100.00;101904.59;5040848;28;20067;-75
2022/07/11 01:29:14;;;;;;;12.63;4.57;;;;;;;17.99;100.00;101895.06;5046275;28;20808;-75
2022/07/11 01:31:42;;;;;;;11.40;4.80;;;;;;;17.98;100.00;101898.28;5048393;28;20227;-77
2022/07/11 01:34:10;;;;;;;13.35;5.57;;;;;;;17.98;100.00;101898.28;5048810;28;20053;-75
2022/07/11 01:36:37;;;;;;;11.00;4.03;;;;;;;17.98;100.00;101892.69;5054062;28;20052;-75
2022/07/11 01:39:04;;;;;;;10.88;4.57;;;;;;;17.99;100.00;101900.66;5051839;28;20156;-75
2022/07/11 01:41:30;;;;;;;12.98;4.65;;;;;;;18.02;100.00;101895.47;5047887;28;20700;-77
2022/07/11 01:43:57;;;;;;;14.35;4.68;;;;;;;17.98;100.00;101896.28;5048770;28;20056;-75
2022/07/11 01:46:24;;;;;;;15.07;4.60;;;;;;;18.00;100.00;101898.69;5045684;28;20045;-76
2022/07/11 01:48:50;;;;;;;14.38;4.53;;;;;;;17.98;100.00;101891.91;5046796;28;20125;-77
2022/07/11 01:51:18;;;;;;;17.20;5.07;;;;;;;18.02;100.00;101890.63;5039160;28;20048;-75
2022/07/11 01:53:44;;;;;;;15.55;4.80;;;;;;;18.05;100.00;101892.59;5057096;28;20057;-77
2022/07/11 01:56:12;;;;;;;12.32;4.60;;;;;;;18.08;100.00;101891.00;5055609;28;20500;-74
2022/07/11 01:58:45;;;;;;;15.15;5.35;;;;;;;18.10;100.00;101892.16;5063619;28;20052;-75
2022/07/11 02:01:12;;;;;;;12.65;4.97;;;;;;;18.15;100.00;101894.47;5055353;28;20139;-75
2022/07/11 02:03:39;;;;;;;18.98;5.03;;;;;;;18.20;100.00;101893.22;5065160;28;20661;-74
2022/07/11 02:06:06;;;;;;;14.95;5.20;;;;;;;18.17;100.00;101891.25;5052907;28;20053;-76
2022/07/11 02:08:33;;;;;;;15.73;5.28;;;;;;;18.16;100.00;101887.66;5064862;28;20060;-74
2022/07/11 02:10:59;;;;;;;15.73;5.13;;;;;;;18.20;100.00;101898.81;5055113;28;20132;-75
2022/07/11 02:13:26;;;;;;;13.95;5.72;;;;;;;18.22;100.00;101890.78;5059951;28;20484;-74
2022/07/11 02:15:53;;;;;;;14.80;5.50;;;;;;;18.26;100.00;101892.31;5059443;28;20148;-74
2022/07/11 02:18:20;;;;;;;14.15;5.80;;;;;;;18.26;100.00;101897.91;5061180;28;20041;-75
2022/07/11 02:20:51;;;;;;;17.60;5.72;;;;;;;18.28;100.00;101900.28;5061155;28;20690;-74
2022/07/11 02:23:19;;;;;;;17.80;5.65;;;;;;;18.28;100.00;101895.47;5057817;28;20072;-76
2022/07/11 02:25:47;;;;;;;21.60;6.25;;;;;;;18.33;100.00;101903.44;5054443;28;20107;-75
2022/07/11 02:28:14;;;;;;;17.23;5.82;;;;;;;18.34;100.00;101898.59;5059051;28;20061;-74
2022/07/11 02:30:43;;;;;;;15.55;6.40;;;;;;;18.34;100.00;101896.59;5058992;28;20547;-75
2022/07/11 02:33:16;;;;;;;17.70;6.10;;;;;;;18.38;100.00;101888.16;5062473;28;20127;-75
2022/07/11 02:35:45;;;;;;;13.32;5.88;;;;;;;18.36;100.00;101899.78;5063850;28;20051;-75
2022/07/11 02:38:14;;;;;;;14.75;5.72;;;;;;;18.37;100.00;101903.41;5062401;28;20127;-76
2022/07/11 02:40:41;;;;;;;17.45;6.50;;;;;;;18.36;100.00;101899.78;5063104;28;20053;-75
2022/07/11 02:43:08;;;;;;;20.20;7.05;;;;;;;18.38;100.00;101900.19;5064618;28;20127;-74
2022/07/11 02:45:36;;;;;;;14.68;5.28;;;;;;;18.39;100.00;101895.38;5061110;28;20110;-74
2022/07/11 02:48:03;;;;;;;16.48;6.22;;;;;;;18.38;100.00;101897.38;5058352;28;20693;-73
2022/07/11 02:50:29;;;;;;;17.48;6.63;;;;;;;18.38;100.00;101899.38;5062453;28;20513;-74
2022/07/11 02:52:56;;;;;;;18.63;5.60;;;;;;;18.39;100.00;101898.19;5064946;28;20106;-74
2022/07/11 02:55:23;;;;;;;18.50;5.53;;;;;;;18.34;100.00;101893.81;5059811;28;20071;-74
2022/07/11 02:57:49;;;;;;;15.52;5.15;;;;;;;18.41;100.00;101892.94;5064241;28;20408;-73
2022/07/11 03:00:17;;;;;;;20.67;6.53;;;;;;;18.41;100.00;101893.72;5064533;28;20048;-74
2022/07/11 03:02:44;;;;;;;14.65;4.72;;;;;;;18.41;100.00;101892.94;5056543;28;20060;-74
2022/07/11 03:05:12;;;;;;;14.52;4.43;;;;;;;18.42;100.00;101898.13;5063975;28;20140;-74
2022/07/11 03:07:39;;;;;;;18.63;5.38;;;;;;;18.44;100.00;101901.28;5056567;28;20056;-74
2022/07/11 03:10:06;;;;;;;17.85;5.00;;;;;;;18.45;100.00;101899.28;5065771;28;20140;-74
2022/07/11 03:12:33;;;;;;;13.02;4.95;;;;;;;18.44;100.00;101897.69;5059940;28;20505;-77
2022/07/11 03:14:59;;;;;;;19.25;4.82;;;;;;;18.43;100.00;101901.72;5048771;28;20053;-75
2022/07/11 03:17:26;;;;;;;15.70;4.78;;;;;;;18.43;100.00;101893.31;5064100;28;20062;-75
2022/07/11 03:19:53;;;;;;;15.13;5.18;;;;;;;18.42;100.00;101898.13;5062951;28;20542;-74
2022/07/11 03:22:19;;;;;;;14.25;5.07;;;;;;;18.43;100.00;101902.53;5058652;28;20044;-73
2022/07/11 03:24:46;;;;;;;14.13;4.50;;;;;;;18.44;100.00;101906.09;5065444;28;20076;-74
2022/07/11 03:27:13;;;;;;;18.30;4.20;;;;;;;18.44;100.00;101904.09;5068678;28;20182;-75
2022/07/11 03:29:40;;;;;;;14.95;4.80;;;;;;;18.43;100.00;101910.94;5059467;28;20467;-76
2022/07/11 03:32:08;;;;;;;14.30;4.15;;;;;;;18.36;100.00;101908.19;5056206;28;20064;-75
2022/07/11 03:34:35;;;;;;;13.60;4.25;;;;;;;18.36;100.00;101911.00;5057284;28;20467;-75
2022/07/11 03:37:02;;;;;;;14.43;4.15;;;;;;;18.32;100.00;101909.47;5059992;28;20055;-75
2022/07/11 03:39:29;;;;;;;7.50;4.00;;;;;;;18.28;100.00;101906.69;5057151;28;20044;-74
2022/07/11 03:41:55;;;;;;;12.00;3.85;;;;;;;18.28;100.00;101912.28;5057628;28;20062;-74
2022/07/11 03:44:22;;;;;;;11.35;4.10;;;;;;;18.32;100.00;101910.22;5055737;28;20049;-75
2022/07/11 03:46:48;;;;;;;11.02;4.18;;;;;;;18.31;100.00;101922.66;5065545;28;20135;-74
2022/07/11 03:49:15;;;;;;;10.80;3.95;;;;;;;18.32;100.00;101918.63;5055963;28;20135;-74
2022/07/11 03:51:42;;;;;;;15.27;4.53;;;;;;;18.33;100.00;101913.84;5059422;28;20056;-74
2022/07/11 03:54:08;;;;;;;12.52;4.05;;;;;;;18.34;100.00;101913.41;5068406;28;20068;-74
2022/07/11 03:56:35;;;;;;;12.80;4.63;;;;;;;18.37;100.00;101914.59;5061543;28;20052;-75
2022/07/11 03:59:02;;;;;;;9.68;3.83;;;;;;;18.35;100.00;101914.22;5061869;28;20098;-75
2022/07/11 04:01:28;;;;;;;12.82;4.10;;;;;;;18.36;100.00;101915.84;5061891;28;20049;-75
2022/07/11 04:03:55;;;;;;;14.45;4.28;;;;;;;18.35;100.00;101922.63;5066469;28;20469;-76
2022/07/11 04:06:22;;;;;;;9.60;3.85;;;;;;;18.34;100.00;101916.22;5067829;28;20086;-74
2022/07/11 04:08:48;;;;;;;8.80;3.75;;;;;;;18.36;100.00;101918.63;5063147;28;20045;-76
2022/07/11 04:11:15;;;;;;;11.07;3.72;;;;;;;18.37;100.00;101914.59;5063155;28;20057;-74
2022/07/11 04:13:42;;;;;;;18.52;6.75;;;;;;;18.37;100.00;101912.59;5056913;28;20144;-74
2022/07/11 04:16:09;;;;;;;14.07;4.47;;;;;;;18.40;100.00;101920.19;5056736;28;20109;-74
2022/07/11 04:18:37;;;;;;;9.93;3.75;;;;;;;18.39;100.00;101915.00;5061052;28;20481;-74
2022/07/11 04:21:04;;;;;;;14.07;3.40;;;;;;;18.41;100.00;101915.34;5061807;28;20142;-75
2022/07/11 04:23:34;;;;;;;10.65;3.58;;;;;;;18.43;100.00;101905.31;5060149;28;20076;-75
2022/07/11 04:26:00;;;;;;;13.13;4.10;;;;;;;18.47;100.00;101916.47;5059865;28;20044;-74
2022/07/11 04:28:27;;;;;;;10.85;3.75;;;;;;;18.47;100.00;101916.47;5066246;28;20032;-76
2022/07/11 04:30:53;;;;;;;10.43;3.67;;;;;;;18.46;100.00;101929.69;5067137;28;20076;-76
2022/07/11 04:33:20;;;;;;;9.73;3.83;;;;;;;18.47;100.00;101922.06;5066967;28;20052;-74
2022/07/11 04:35:46;;;;;;;12.52;3.47;;;;;;;18.48;100.00;101926.44;5063856;28;20126;-74
2022/07/11 04:38:13;;;;;;;10.80;3.30;;;;;;;18.50;100.00;101926.84;5063128;28;20135;-76
2022/07/11 04:40:40;;;;;;;12.90;3.67;;;;;;;18.49;100.00;101933.66;5058269;28;20088;-74
2022/07/11 04:43:06;;;;;;;13.02;3.50;;;;;;;18.47;100.00;101930.47;5065383;28;20622;-74
2022/07/11 04:45:33;;;;;;;7.82;3.30;;;;;;;18.44;100.00;101922.91;5055887;28;20106;-74
2022/07/11 04:48:01;;;;;;;7.85;3.38;;;;;;;18.44;100.00;101929.31;5057732;28;20152;-73
2022/07/11 04:50:29;;;;;;;7.45;2.72;;;;;;;18.47;100.00;101933.28;5062632;28;20513;-76
2022/07/11 04:52:56;;;;;;;15.05;3.40;;;;;;;18.47;100.00;101931.28;5054024;28;20052;-76
2022/07/11 04:55:22;;;;;;;8.60;3.05;;;;;;;18.49;100.00;101937.25;5057486;28;20660;-76
2022/07/11 04:57:49;;;;;;;8.45;2.78;;;;;;;18.54;100.00;101938.78;5056436;28;20044;-74
2022/07/11 05:00:16;;;;;;;6.93;2.83;;;;;;;18.54;100.00;101939.59;5064161;28;20163;-75
2022/07/11 05:02:43;;;;;;;7.05;2.88;;;;;;;18.49;100.00;101930.88;5062175;28;20131;-75
2022/07/11 05:05:10;;;;;;;7.55;2.80;;;;;;;18.56;100.00;101945.53;5056930;28;20107;-75
2022/07/11 05:07:37;;;;;;;11.18;3.10;;;;;;;18.57;100.00;101937.94;5059517;28;20063;-75
2022/07/11 05:10:04;;;;;;;5.22;2.38;;;;;;;18.57;100.00;101947.16;5057153;28;20167;-74
2022/07/11 05:12:31;;;;;;;8.30;2.70;;;;;;;18.57;100.00;101940.75;5064515;28;20539;-75
2022/07/11 05:15:01;;;;;;;9.57;2.65;;;;;;;18.60;100.00;101948.31;5063441;28;20179;-75
2022/07/11 05:17:27;;;;;;;6.35;2.40;;;;;;;18.60;100.00;101953.91;5063014;28;20056;-74
2022/07/11 05:19:54;;;;;;;9.05;2.72;;;;;;;18.58;100.00;101957.16;5065013;28;20044;-75
2022/07/11 05:22:21;;;;;;;8.88;2.40;;;;;;;18.59;100.00;101953.13;5065510;28;20041;-75
2022/07/11 05:24:47;;;;;;;6.80;2.20;;;;;;;18.60;100.00;101949.13;5065787;28;20114;-75
2022/07/11 05:27:14;;;;;;;5.57;2.38;;;;;;;18.61;100.00;101953.50;5063729;28;20100;-75
2022/07/11 05:29:40;;;;;;;4.55;2.03;;;;;;;18.63;100.00;101956.66;5050789;28;20052;-76
2022/07/11 05:32:07;;;;;;;6.15;2.75;;;;;;;18.68;100.00;101959.00;5065285;28;20493;-75
2022/07/11 05:34:34;;;;;;;10.05;1.88;;;;;;;18.68;100.00;101953.41;5056627;28;20103;-75
2022/07/11 05:37:01;;;;;;;2.97;2.00;;;;;;;18.73;100.00;101960.53;5052936;28;20458;-75
2022/07/11 05:39:27;;;;;;;4.82;2.40;;;;;;;18.77;100.00;101970.50;5057030;28;20048;-75
2022/07/11 05:41:54;;;;;;;3.78;1.35;;;;;;;18.79;100.00;101961.63;5065801;28;20060;-75
2022/07/11 05:44:20;;;;;;;6.30;2.05;;;;;;;18.88;100.00;101967.50;5061790;28;20132;-73
2022/07/11 05:46:47;;;;;;;5.07;1.90;;;;;;;18.93;100.00;101970.63;5062078;28;20052;-75
2022/07/11 05:49:14;;;;;;;5.13;1.40;;;;;;;18.97;100.00;101959.38;5065561;28;20421;-74
2022/07/11 05:51:41;;;;;;;1.88;1.30;;;;;;;18.99;100.00;101971.75;5051024;28;20132;-76
2022/07/11 05:54:08;;;;;;;5.13;1.55;;;;;;;19.00;100.00;101970.50;5064862;28;20075;-75
2022/07/11 05:56:34;;;;;;;4.40;1.48;;;;;;;19.01;100.00;101966.50;5065864;28;20471;-77
2022/07/11 05:59:01;;;;;;;4.90;1.65;;;;;;;18.96;100.00;101966.97;5063500;28;20076;-76
2022/07/11 06:01:27;;;;;;;4.55;1.65;;;;;;;18.97;100.00;101967.78;5052812;28;20045;-74
2022/07/11 06:04:02;;;;;;;3.65;1.73;;;;;;;18.98;100.00;101972.97;5062429;28;20048;-74
2022/07/11 06:06:29;;;;;;;4.03;1.58;;;;;;;18.99;100.00;101977.34;5058887;28;20055;-72
2022/07/11 06:08:55;;;;;;;4.47;1.70;;;;;;;18.94;100.00;101977.84;5066605;28;20131;-73
2022/07/11 06:11:22;;;;;;;2.63;1.60;;;;;;;18.96;100.00;101974.59;5064703;28;20501;-77
2022/07/11 06:13:49;;;;;;;3.50;1.65;;;;;;;18.88;100.00;101979.53;5068929;28;20127;-73
2022/07/11 06:16:17;;;;;;;2.78;1.77;;;;;;;18.92;100.00;101980.25;5064211;28;20511;-75
2022/07/11 06:18:44;;;;;;;4.70;1.70;;;;;;;18.95;100.00;101984.22;5068303;28;20059;-73
2022/07/11 06:21:11;;;;;;;2.30;1.42;;;;;;;18.93;100.00;101983.88;5067262;28;20057;-74
2022/07/11 06:23:38;;;;;;;4.32;1.90;;;;;;;18.98;100.00;101983.38;5070392;28;20067;-73
2022/07/11 06:26:05;;;;;;;8.32;2.05;;;;;;;19.03;100.00;101982.91;5067381;28;20102;-75
2022/07/11 06:28:32;;;;;;;3.88;1.45;;;;;;;19.06;100.00;101987.66;5069362;28;20056;-75
2022/07/11 06:30:59;;;;;;;3.75;1.60;;;;;;;19.12;100.00;101994.38;5063719;28;20453;-75
2022/07/11 06:33:25;;;;;;;3.55;1.52;;;;;;;19.08;100.00;101991.63;5063668;28;20062;-74
2022/07/11 06:35:52;;;;;;;2.67;1.35;;;;;;;19.10;100.00;101994.03;5061873;28;20052;-73
2022/07/11 06:38:19;;;;;;;2.72;1.60;;;;;;;19.10;100.00;101991.22;5057037;28;20599;-74
2022/07/11 06:40:46;;;;;;;4.10;1.85;;;;;;;19.15;100.00;101990.72;5062951;28;20044;-76
2022/07/11 06:43:13;;;;;;;2.60;1.20;;;;;;;19.17;100.00;101991.09;5060161;28;20070;-75
2022/07/11 06:45:39;;;;;;;3.13;1.25;;;;;;;19.21;100.00;101986.22;5064758;28;20131;-74
2022/07/11 06:48:06;;;;;;;3.47;1.52;;;;;;;19.25;100.00;101998.16;5057635;28;20553;-76
2022/07/11 06:50:33;;;;;;;5.75;1.52;;;;;;;19.27;100.00;101987.34;5056391;28;20673;-73
2022/07/11 06:53:00;;;;;;;2.03;1.35;;;;;;;19.34;100.00;101993.63;5063083;28;20067;-73
2022/07/11 06:55:26;;;;;;;2.75;1.30;;;;;;;19.39;100.00;101997.97;5064911;28;20477;-72
2022/07/11 06:57:53;;;;;;;1.90;1.30;;;;;;;19.42;100.00;101989.50;5057511;28;20695;-72
2022/07/11 07:00:39;;;;;;;2.00;1.17;;;;;;;19.46;100.00;101995.03;5065687;28;20036;-73
2022/07/11 07:03:08;;;;;;;1.95;1.38;;;;;;;19.45;100.00;101996.25;5063596;28;20743;-75
2022/07/11 07:05:45;;;;;;;4.45;1.73;;;;;;;19.46;100.00;101998.63;5069468;28;20053;-71
2022/07/11 07:08:13;;;;;;;3.65;1.70;;;;;;;19.42;100.00;101995.09;5063207;28;20048;-73
2022/07/11 07:10:40;;;;;;;3.60;1.90;;;;;;;19.43;100.00;101991.06;5059703;28;20806;-75
2022/07/11 07:13:06;;;;;;;4.90;1.92;;;;;;;19.40;100.00;102000.34;5057125;28;20110;-72
2022/07/11 07:15:33;;;;;;;4.70;2.00;;;;;;;19.39;100.00;102003.56;5059530;28;20052;-72
2022/07/11 07:18:00;;;;;;;6.53;2.05;;;;;;;19.37;100.00;102003.22;5064316;28;20071;-76
2022/07/11 07:20:29;;;;;;;4.82;2.25;;;;;;;19.33;100.00;102010.88;5063831;28;20062;-72
2022/07/11 07:22:56;;;;;;;12.07;3.03;;;;;;;19.27;100.00;102007.78;5052463;28;20067;-75
2022/07/11 07:25:23;;;;;;;8.18;2.40;;;;;;;19.29;100.00;102005.34;5060413;28;20051;-70
2022/07/11 07:27:50;;;;;;;6.35;2.20;;;;;;;19.31;100.00;102011.31;5063252;28;20055;-72
2022/07/11 07:30:16;;;;;;;7.00;2.38;;;;;;;19.30;100.00;102009.72;5058635;28;20048;-73
2022/07/11 07:32:43;;;;;;;7.18;2.33;;;;;;;19.35;100.00;102006.47;5063541;28;20056;-72
2022/07/11 07:35:10;;;;;;;5.10;2.03;;;;;;;19.44;100.00;102014.34;5063962;28;20130;-72
2022/07/11 07:37:36;;;;;;;5.20;1.70;;;;;;;19.50;100.00;102015.41;5059079;28;20137;-75
2022/07/11 07:40:04;;;;;;;3.95;1.60;;;;;;;19.57;100.00;102012.47;5052183;28;20052;-73
2022/07/11 07:42:30;;;;;;;2.53;1.40;;;;;;;19.62;100.00;102012.81;5055464;28;20178;-72
2022/07/11 07:44:57;;;;;;;3.92;1.75;;;;;;;19.64;100.00;102006.75;5065275;28;20406;-72
2022/07/11 07:47:23;;;;;;;4.82;1.95;;;;;;;19.66;100.00;102009.91;5063543;28;20056;-72
2022/07/11 07:49:50;;;;;;;2.92;1.33;;;;;;;19.65;100.00;102016.75;5056596;28;20075;-73
2022/07/11 07:52:17;;;;;;;3.47;1.73;;;;;;;19.62;100.00;102015.59;5069680;28;20048;-73
2022/07/11 07:54:43;;;;;;;5.13;1.98;;;;;;;19.66;100.00;102007.09;5060387;28;20044;-72
2022/07/11 07:57:10;;;;;;;2.60;1.58;;;;;;;19.71;100.00;102013.03;5055477;28;20073;-72
2022/07/11 07:59:37;;;;;;;3.17;1.60;;;;;;;19.76;100.00;102011.75;5055791;28;20049;-73
2022/07/11 08:02:03;;;;;;;7.38;2.20;;;;;;;19.86;100.00;102005.13;5058841;28;20457;-72
2022/07/11 08:04:30;;;;;;;4.60;1.85;;;;;;;19.96;100.00;102007.75;5063835;28;20040;-72
2022/07/11 08:06:59;;;;;;;4.22;1.60;;;;;;;20.04;100.00;101994.34;5062397;28;20082;-73
2022/07/11 08:09:26;;;;;;;8.32;1.88;;;;;;;20.16;100.00;102002.97;5060950;28;20753;-68
2022/07/11 08:11:53;;;;;;;5.20;2.03;;;;;;;20.02;100.00;101991.19;5057123;28;20395;-69
2022/07/11 08:14:21;;;;;;;3.88;1.77;;;;;;;20.19;100.00;101992.88;5061324;28;20064;-69
2022/07/11 08:16:48;;;;;;;2.85;2.13;;;;;;;20.32;100.00;101994.59;5058400;28;20076;-73
2022/07/11 08:19:15;;;;;;;5.50;2.08;;;;;;;20.47;100.00;102002.72;5062063;28;20127;-72
2022/07/11 08:21:42;;;;;;;5.57;2.28;;;;;;;20.61;100.00;101999.63;5066704;28;20568;-74
2022/07/11 08:24:09;;;;;;;5.72;1.65;;;;;;;20.69;100.00;102006.66;5059183;28;20041;-74
2022/07/11 08:26:36;;;;;;;3.42;1.83;;;;;;;20.81;100.00;102001.13;5067380;28;20044;-76
2022/07/11 08:29:04;;;;;;;7.97;1.98;;;;;;;20.88;100.00;102003.78;5064568;28;20476;-74
2022/07/11 08:31:31;;;;;;;3.95;1.50;;;;;;;20.87;100.00;101998.59;5060817;28;20500;-75
2022/07/11 08:33:59;;;;;;;3.50;1.38;;;;;;;20.91;100.00;101993.66;5053199;28;20045;-73
2022/07/11 08:36:32;;;;;;;5.78;1.60;;;;;;;20.92;100.00;102000.91;5066486;28;20070;-78
2022/07/11 08:38:59;;;;;;;6.70;1.98;;;;;;;20.93;100.00;101994.88;5060416;28;20040;-75
2022/07/11 08:41:26;;;;;;;3.42;1.77;;;;;;;20.92;100.00;102006.53;5072263;28;20471;-74
2022/07/11 08:43:53;;;;;;;2.67;1.50;;;;;;;20.98;100.00;102004.78;5062863;28;20501;-75
2022/07/11 08:46:20;;;;;;;3.40;1.60;;;;;;;21.05;100.00;102004.63;5064355;28;20051;-75
2022/07/11 08:48:49;;;;;;;2.75;1.17;;;;;;;20.98;100.00;102008.41;5055938;28;20056;-73
2022/07/11 08:51:15;;;;;;;2.35;1.40;;;;;;;21.05;100.00;102001.81;5056370;28;20398;-73
2022/07/11 08:53:44;;;;;;;3.78;1.33;;;;;;;21.15;100.00;102006.38;5064596;28;20098;-75
2022/07/11 08:56:17;;;;;;;3.30;1.20;;;;;;;21.16;100.00;102005.94;5063022;28;20692;-73
2022/07/11 08:58:46;;;;;;;3.30;1.35;;;;;;;21.20;100.00;102005.88;5061223;28;20064;-76
2022/07/11 09:01:25;;;;;;;;;;;;;;;21.05;100.00;102018.69;5061291;28;20041;-72
2022/07/11 09:03:53;;;;;;;2.08;1.17;;;;;;;20.98;100.00;102013.22;5066208;28;19936;-75
2022/07/11 09:06:20;;;;;;;5.43;1.10;;;;;;;20.81;100.00;102020.03;5063688;28;20122;-72
2022/07/11 09:08:46;;;;;;;3.38;1.17;;;;;;;20.64;100.00;102001.53;5064857;28;20583;-73
2022/07/11 09:11:13;;;;;;;2.40;1.20;;;;;;;20.73;100.00;102010.97;5065338;28;20139;-74
2022/07/11 09:13:40;;;;;;;2.58;1.73;;;;;;;20.82;100.00;102010.38;5058634;28;20076;-73
2022/07/11 09:16:08;;;;;;;4.35;1.42;;;;;;;20.86;100.00;102013.91;5063670;28;20117;-74
2022/07/11 09:18:36;;;;;;;5.85;1.05;;;;;;;20.90;100.00;102006.16;5062975;28;20056;-74
2022/07/11 09:26:38;;;;;;;1.67;0.80;;;;;;;20.75;100.00;101999.28;5066152;28;20102;-74
2022/07/11 09:29:09;;;;;;;1.65;0.80;;;;;;;20.93;100.00;102002.47;5059268;28;20080;-73
2022/07/11 09:31:37;;;;;;;1.02;0.57;;;;;;;21.02;100.00;101994.25;5066468;28;20667;-73
2022/07/11 09:34:05;;;;;;;3.55;0.90;;;;;;;21.04;100.00;101997.41;5058756;28;20060;-76
2022/07/11 09:36:42;;;;;;;0.65;0.65;;;;;;;20.93;100.00;101991.22;5059261;28;20113;-74
2022/07/11 09:39:16;;;;;;;2.30;1.08;;;;;;;21.07;100.00;101999.34;5058529;28;20049;-74
2022/07/11 09:41:43;;;;;;;1.75;0.95;;;;;;;21.23;100.00;102005.00;5061422;28;20048;-74
2022/07/11 09:44:12;;;;;;;1.13;0.60;;;;;;;21.36;100.00;101995.38;5057035;28;20163;-73
2022/07/11 09:46:41;;;;;;;2.00;0.68;;;;;;;21.47;100.00;102000.75;5061663;28;20095;-74
2022/07/11 09:49:08;;;;;;;1.58;0.88;;;;;;;21.52;98.77;102003.03;5066613;28;20080;-75
2022/07/11 09:51:37;;;;;;;2.20;1.00;;;;;;;21.54;98.65;102000.56;5055312;28;20410;-75
2022/07/11 09:54:05;;;;;;;2.67;0.88;;;;;;;21.58;99.78;102007.72;5064036;28;20113;-75
2022/07/11 09:56:31;;;;;;;1.42;0.73;;;;;;;21.58;99.98;102006.91;5065317;28;20052;-75
2022/07/11 09:59:18;;;;;;;1.65;0.77;;;;;;;21.59;100.00;102008.47;5063150;28;20068;-74
2022/07/11 10:01:45;;;;;;;0.88;0.60;;;;;;;21.49;99.54;102003.91;5062072;28;20053;-75
2022/07/11 10:04:11;;;;;;;1.67;0.77;;;;;;;21.46;98.77;102002.78;5061145;28;20390;-75
2022/07/11 10:06:43;;;;;;;2.45;0.88;;;;;;;21.43;99.67;102000.84;5065215;28;20052;-75
2022/07/11 10:09:11;;;;;;;5.28;0.75;;;;;;;21.37;99.96;102002.63;5065330;28;20040;-76
2022/07/11 10:11:38;;;;;;;3.22;0.80;;;;;;;21.35;100.00;102005.06;5061429;28;20131;-75
2022/07/11 10:14:07;;;;;;;3.05;0.93;;;;;;;21.32;100.00;102010.78;5066197;28;20048;-75
2022/07/11 10:16:48;;;;;;;2.97;1.52;;;;;;;21.26;100.00;102009.75;5059540;28;20079;-75
2022/07/11 10:19:24;;;;;;;2.30;0.93;;;;;;;21.27;100.00;102009.31;5059666;28;20127;-75
2022/07/11 10:21:59;;;;;;;1.33;0.88;;;;;;;21.24;99.95;102015.03;5061960;28;20084;-74
2022/07/11 10:25:02;;;;;;;1.45;1.00;;;;;;;21.27;99.29;102011.31;5047974;28;20494;-75
2022/07/11 10:27:50;;;;;;;1.45;0.77;;;;;;;21.36;98.57;102009.47;5061304;28;20575;-74
2022/07/11 10:31:03;;;;;;;1.75;0.80;;;;;;;21.54;99.41;102009.84;5065152;28;20125;-74
2022/07/11 10:33:30;;;;;;;2.38;0.95;;;;;;;21.74;98.45;102012.56;5054071;28;20055;-74
2022/07/11 10:35:58;;;;;;;0.70;0.65;;;;;;;21.90;95.79;102018.16;5062689;28;20056;-74
2022/07/11 10:38:25;;;;;;;3.45;0.98;;;;;;;22.09;94.98;102018.00;5064551;28;20052;-74
2022/07/11 10:40:55;;;;;;;2.10;0.80;;;;;;;22.31;93.50;102018.19;5053557;28;20056;-75
2022/07/11 10:43:22;;;;;;;4.13;0.98;;;;;;;22.54;93.36;102029.22;5056755;28;20078;-75
2022/07/11 10:45:55;;;;;;;1.42;0.60;;;;;;;22.67;92.09;102024.38;5061962;28;20041;-73
2022/07/11 10:48:23;;;;;;;1.15;0.70;;;;;;;22.77;91.59;102030.97;5054860;28;20072;-75
2022/07/11 10:51:02;;;;;;;1.45;0.70;;;;;;;22.84;89.46;102030.75;5058019;28;20076;-73
2022/07/11 10:53:44;;;;;;;1.65;0.90;;;;;;;22.80;88.65;102030.84;5052617;28;20076;-76
2022/07/11 10:56:32;;;;;;;1.50;0.70;;;;;;;22.75;87.79;102034.22;5061274;28;20098;-73
2022/07/11 10:59:19;;;;;;;4.72;1.15;;;;;;;22.62;88.47;102037.00;5060762;28;20049;-73
2022/07/11 11:02:04;;;;;;;1.48;0.95;;;;;;;22.41;88.33;102034.03;5042231;28;20049;-75
2022/07/11 11:04:47;;;;;;;1.27;0.95;;;;;;;22.40;90.24;102043.69;5050839;28;20437;-74
2022/07/11 11:07:44;;;;;;;4.00;1.67;;;;;;;22.48;90.57;102028.97;5046970;28;20044;-76
2022/07/11 11:10:17;;;;;;;3.83;1.35;;;;;;;22.52;89.98;102029.66;5048952;28;20049;-75
2022/07/11 11:13:06;;;;;;;2.85;0.80;;;;;;;22.42;89.09;102027.13;5049086;28;20067;-73
2022/07/11 11:15:43;;;;;;;1.23;1.00;;;;;;;22.48;90.23;102026.16;5048077;28;20052;-69
2022/07/11 11:18:21;;;;;;;2.10;1.38;;;;;;;22.47;90.39;102035.81;5046460;28;20233;-76
2022/07/11 11:23:58;;;;;;;1.42;1.27;;;;;;;22.42;89.72;102041.22;5041548;28;20615;-74
2022/07/11 11:26:41;;;;;;;2.97;1.33;;;;;;;22.40;89.58;102035.25;5037637;28;20103;-74
2022/07/11 11:29:07;;;;;;;5.03;1.70;;;;;;;22.37;89.63;102041.78;5043916;28;20128;-75